createdAt,value
2022-09-26T00:01:28.100Z,15.52
2022-09-26T00:03:58.793Z,16.77
2022-09-26T00:06:28.680Z,14.68
2022-09-26T00:08:59.253Z,14.77
2022-09-26T00:11:31.565Z,13.07
2022-09-26T00:14:02.812Z,10.68
2022-09-26T00:16:30.797Z,15.02
2022-09-26T00:19:01.195Z,15.25
2022-09-26T00:21:31.249Z,12.25
2022-09-26T00:24:00.512Z,12.35
2022-09-26T00:26:30.256Z,13.57
2022-09-26T00:28:59.271Z,13.43
2022-09-26T00:31:29.173Z,11.05
2022-09-26T00:33:57.258Z,13.13
2022-09-26T00:36:36.958Z,11.23
2022-09-26T00:39:08.799Z,12.82
2022-09-26T00:41:37.921Z,12.98
2022-09-26T00:44:40.733Z,10.32
2022-09-26T00:47:19.865Z,13.82
2022-09-26T00:49:49.655Z,14.27
2022-09-26T00:52:22.888Z,13.25
2022-09-26T00:54:57.417Z,17.48
2022-09-26T00:57:32.068Z,15.93
2022-09-26T01:00:02.622Z,15.05
2022-09-26T01:02:30.851Z,14.43
2022-09-26T01:05:00.260Z,16.48
2022-09-26T01:07:30.110Z,16.67
2022-09-26T01:10:00.020Z,14.40
2022-09-26T01:12:28.063Z,13.55
2022-09-26T01:14:56.585Z,14.98
2022-09-26T01:17:26.007Z,17.02
2022-09-26T01:20:06.781Z,18.40
2022-09-26T01:23:18.966Z,14.57
2022-09-26T01:26:27.550Z,13.98
2022-09-26T01:29:16.870Z,15.77
2022-09-26T01:32:07.835Z,17.17
2022-09-26T01:34:43.022Z,14.55
2022-09-26T01:37:22.809Z,16.63
2022-09-26T01:39:58.364Z,17.65
2022-09-26T01:42:37.075Z,13.18
2022-09-26T01:45:10.820Z,15.25
2022-09-26T01:47:43.881Z,13.90
2022-09-26T01:50:22.449Z,14.20
2022-09-26T01:52:54.544Z,14.68
2022-09-26T01:55:26.932Z,15.35
2022-09-26T01:57:58.233Z,18.92
2022-09-26T02:00:26.573Z,16.88
2022-09-26T02:03:04.089Z,14.77
2022-09-26T02:05:36.066Z,17.10
2022-09-26T02:08:10.970Z,17.85
2022-09-26T02:10:44.513Z,13.75
2022-09-26T02:13:17.117Z,17.50
2022-09-26T02:15:48.639Z,17.17
2022-09-26T02:18:23.836Z,18.55
2022-09-26T02:20:57.869Z,17.88
2022-09-26T02:23:25.825Z,18.35
2022-09-26T02:25:54.998Z,15.45
2022-09-26T02:28:23.281Z,18.85
2022-09-26T02:30:53.312Z,14.77
2022-09-26T02:33:22.636Z,14.15
2022-09-26T02:35:55.399Z,17.83
2022-09-26T02:38:27.553Z,15.00
2022-09-26T02:41:18.857Z,16.92
2022-09-26T02:44:12.623Z,13.20
2022-09-26T02:46:57.414Z,13.50
2022-09-26T02:49:45.080Z,15.18
2022-09-26T02:52:24.054Z,14.82
2022-09-26T02:55:02.946Z,13.43
2022-09-26T02:57:38.185Z,13.98
2022-09-26T03:00:10.072Z,14.60
2022-09-26T03:02:42.502Z,16.73
2022-09-26T03:05:21.655Z,16.77
2022-09-26T03:07:56.404Z,15.02
2022-09-26T03:10:26.915Z,15.00
2022-09-26T03:12:58.580Z,14.43
2022-09-26T03:15:27.702Z,14.68
2022-09-26T03:17:57.663Z,19.85
2022-09-26T03:20:27.017Z,20.17
2022-09-26T03:22:57.199Z,14.32
2022-09-26T03:25:28.384Z,13.50
2022-09-26T03:28:05.877Z,14.18
2022-09-26T03:30:34.862Z,17.02
2022-09-26T03:33:22.775Z,14.20
2022-09-26T03:35:52.509Z,16.00
2022-09-26T03:38:22.231Z,17.08
2022-09-26T03:40:59.481Z,15.82
2022-09-26T03:43:46.113Z,15.93
2022-09-26T03:46:15.723Z,16.75
2022-09-26T03:48:44.112Z,14.38
2022-09-26T03:51:14.812Z,18.75
2022-09-26T03:53:47.083Z,15.48
2022-09-26T03:56:20.319Z,15.25
2022-09-26T03:58:49.828Z,14.18
2022-09-26T04:01:21.259Z,20.23
2022-09-26T04:03:51.255Z,16.48
2022-09-26T04:06:21.505Z,17.02
2022-09-26T04:08:52.420Z,17.88
2022-09-26T04:11:24.410Z,17.80
2022-09-26T04:13:54.103Z,18.42
2022-09-26T04:16:25.702Z,17.10
2022-09-26T04:19:00.140Z,18.73
2022-09-26T04:21:31.101Z,15.98
2022-09-26T04:24:00.352Z,18.25
2022-09-26T04:26:28.640Z,17.35
2022-09-26T04:28:59.023Z,18.02
2022-09-26T04:31:48.482Z,17.65
2022-09-26T04:34:26.269Z,15.23
2022-09-26T04:36:57.226Z,16.83
2022-09-26T04:39:25.818Z,15.65
2022-09-26T04:41:54.448Z,15.75
2022-09-26T04:44:22.689Z,14.63
2022-09-26T04:46:50.685Z,15.40
2022-09-26T04:49:21.610Z,15.00
2022-09-26T04:51:49.884Z,15.95
2022-09-26T04:54:19.274Z,16.80
2022-09-26T04:56:48.177Z,13.98
2022-09-26T04:59:16.234Z,12.02
2022-09-26T05:01:56.280Z,14.10
2022-09-26T05:04:36.353Z,12.65
2022-09-26T05:07:04.321Z,15.60
2022-09-26T05:09:36.236Z,15.35
2022-09-26T05:12:24.734Z,17.20
2022-09-26T05:14:53.991Z,16.05
2022-09-26T05:17:24.078Z,15.95
2022-09-26T05:19:53.448Z,14.65
2022-09-26T05:22:25.849Z,15.73
2022-09-26T05:25:16.490Z,16.70
2022-09-26T05:27:44.658Z,16.02
2022-09-26T05:30:13.587Z,15.05
2022-09-26T05:32:47.346Z,16.45
2022-09-26T05:35:17.247Z,20.02
2022-09-26T05:37:45.788Z,14.70
2022-09-26T05:40:32.622Z,16.00
2022-09-26T05:43:02.095Z,16.27
2022-09-26T05:45:31.777Z,16.40
2022-09-26T05:48:03.070Z,18.33
2022-09-26T05:50:31.236Z,16.50
2022-09-26T05:52:59.853Z,18.27
2022-09-26T05:55:31.014Z,16.30
2022-09-26T05:58:28.418Z,19.48
2022-09-26T06:01:17.191Z,24.55
2022-09-26T06:03:47.682Z,16.15
2022-09-26T06:06:24.889Z,16.08
2022-09-26T06:08:57.736Z,15.55
2022-09-26T06:11:45.618Z,17.23
2022-09-26T06:14:14.004Z,17.17
2022-09-26T06:16:44.747Z,21.92
2022-09-26T06:19:14.424Z,21.42
2022-09-26T06:21:44.167Z,18.73
2022-09-26T06:24:15.778Z,17.70
2022-09-26T06:26:45.664Z,20.00
2022-09-26T06:29:14.030Z,15.10
2022-09-26T06:31:43.249Z,16.13
2022-09-26T06:34:12.761Z,15.02
2022-09-26T06:37:01.739Z,15.85
2022-09-26T06:39:35.513Z,15.88
2022-09-26T06:42:05.642Z,18.17
2022-09-26T06:44:56.783Z,18.88
2022-09-26T06:47:27.132Z,14.85
2022-09-26T06:50:18.422Z,17.05
2022-09-26T06:52:52.615Z,18.42
2022-09-26T06:55:22.430Z,14.95
2022-09-26T06:57:53.942Z,17.85
2022-09-26T07:00:26.614Z,18.33
2022-09-26T07:03:01.767Z,18.35
2022-09-26T07:05:51.619Z,15.82
2022-09-26T07:08:28.861Z,17.90
2022-09-26T07:11:31.068Z,18.67
2022-09-26T07:14:02.368Z,17.08
2022-09-26T07:16:34.429Z,20.60
2022-09-26T07:19:21.065Z,16.88
2022-09-26T07:21:57.088Z,18.27
2022-09-26T07:24:32.291Z,19.00
2022-09-26T07:27:01.523Z,17.20
2022-09-26T07:29:30.927Z,16.63
2022-09-26T07:32:00.296Z,16.92
2022-09-26T07:34:48.021Z,17.38
2022-09-26T07:37:19.549Z,15.48
2022-09-26T07:39:52.790Z,19.85
2022-09-26T07:42:22.341Z,18.15
2022-09-26T07:45:21.991Z,16.30
2022-09-26T07:47:58.861Z,17.55
2022-09-26T07:51:03.514Z,14.73
2022-09-26T07:53:44.122Z,19.33
2022-09-26T07:56:34.327Z,16.08
2022-09-26T07:59:23.082Z,16.27
2022-09-26T08:02:25.897Z,16.30
2022-09-26T08:05:00.203Z,16.73
2022-09-26T08:07:29.513Z,17.63
2022-09-26T08:10:09.323Z,16.05
2022-09-26T08:12:56.723Z,19.42
2022-09-26T08:15:45.339Z,15.90
2022-09-26T08:18:23.517Z,20.67
2022-09-26T08:20:51.568Z,19.08
2022-09-26T08:23:19.564Z,21.45
2022-09-26T08:26:08.515Z,17.42
2022-09-26T08:28:43.967Z,18.38
2022-09-26T08:31:13.347Z,19.15
2022-09-26T08:33:44.101Z,18.42
2022-09-26T08:36:13.983Z,19.98
2022-09-26T08:38:55.017Z,21.63
2022-09-26T08:41:52.142Z,20.90
2022-09-26T08:45:24.503Z,21.77
2022-09-26T08:48:35.270Z,21.48
2022-09-26T08:51:29.025Z,20.90
2022-09-26T08:54:04.607Z,20.10
2022-09-26T08:56:37.838Z,23.77
2022-09-26T08:59:12.145Z,23.73
2022-09-26T09:01:46.659Z,25.55
2022-09-26T09:04:42.889Z,24.55
2022-09-26T09:07:22.376Z,23.67
2022-09-26T09:09:52.559Z,24.80
2022-09-26T09:12:59.220Z,26.45
2022-09-26T09:16:19.821Z,28.95
2022-09-26T09:19:17.609Z,32.55
2022-09-26T09:22:26.096Z,27.85
2022-09-26T09:25:03.284Z,29.83
2022-09-26T09:27:55.019Z,27.45
2022-09-26T09:30:26.289Z,25.73
2022-09-26T09:33:20.796Z,27.55
2022-09-26T09:35:57.482Z,27.88
2022-09-26T09:38:49.596Z,30.10
2022-09-26T09:41:48.190Z,26.67
2022-09-26T09:44:30.828Z,28.17
2022-09-26T09:47:03.735Z,28.67
2022-09-26T09:49:31.952Z,28.67
2022-09-26T09:52:11.631Z,29.23
2022-09-26T09:54:49.522Z,33.45
2022-09-26T09:57:43.624Z,24.48
2022-09-26T10:00:16.163Z,29.77
2022-09-26T10:03:01.120Z,26.83
2022-09-26T10:05:39.152Z,27.00
2022-09-26T10:08:13.087Z,30.92
2022-09-26T10:11:23.926Z,26.27
2022-09-26T10:14:03.265Z,27.10
2022-09-26T10:17:31.219Z,26.85
2022-09-26T10:20:35.634Z,30.30
2022-09-26T10:23:06.179Z,29.23
2022-09-26T10:25:34.241Z,32.83
2022-09-26T10:28:05.178Z,34.65
2022-09-26T10:30:48.673Z,28.05
2022-09-26T10:33:28.014Z,25.55
2022-09-26T10:36:19.600Z,24.13
2022-09-26T10:39:11.789Z,24.63
2022-09-26T10:41:43.054Z,21.35
2022-09-26T10:44:27.953Z,19.10
2022-09-26T10:47:19.218Z,21.20
2022-09-26T10:50:11.531Z,18.80
2022-09-26T10:53:08.402Z,19.58
2022-09-26T10:55:43.888Z,18.00
2022-09-26T10:58:18.705Z,17.85
2022-09-26T11:00:50.503Z,18.08
2022-09-26T11:03:23.133Z,19.25
2022-09-26T11:06:24.712Z,18.13
2022-09-26T11:09:02.903Z,17.15
2022-09-26T11:11:57.078Z,15.75
2022-09-26T11:14:30.014Z,16.17
2022-09-26T11:17:14.202Z,20.65
2022-09-26T11:19:49.931Z,15.07
2022-09-26T11:22:28.141Z,15.93
2022-09-26T11:25:10.269Z,16.33
2022-09-26T11:27:43.940Z,14.05
2022-09-26T11:30:20.667Z,12.85
2022-09-26T11:33:13.365Z,16.88
2022-09-26T11:36:23.968Z,11.60
2022-09-26T11:38:57.634Z,13.30
2022-09-26T11:41:45.649Z,11.73
2022-09-26T11:44:29.107Z,10.18
2022-09-26T11:47:49.512Z,12.82
2022-09-26T11:50:40.321Z,9.68
2022-09-26T11:53:35.912Z,9.32
2022-09-26T11:56:32.574Z,9.75
2022-09-26T11:59:11.044Z,6.05
2022-09-26T12:01:48.053Z,7.35
2022-09-26T12:04:32.763Z,6.93
2022-09-26T12:07:10.859Z,7.93
2022-09-26T12:09:55.439Z,7.97
2022-09-26T12:12:29.081Z,7.90
2022-09-26T12:15:12.778Z,6.10
2022-09-26T12:17:53.384Z,6.25
2022-09-26T12:20:31.304Z,7.78
2022-09-26T12:23:14.150Z,8.65
2022-09-26T12:25:58.291Z,7.90
2022-09-26T12:28:58.409Z,6.45
2022-09-26T12:31:40.264Z,10.23
2022-09-26T12:34:22.400Z,6.68
2022-09-26T12:37:03.929Z,8.23
2022-09-26T12:39:50.063Z,6.97
2022-09-26T12:42:38.673Z,9.77
2022-09-26T12:45:53.008Z,5.60
2022-09-26T12:48:32.791Z,11.98
2022-09-26T12:51:15.360Z,9.57
2022-09-26T12:53:59.841Z,8.80
2022-09-26T12:56:45.781Z,6.28
2022-09-26T12:59:28.715Z,7.70
2022-09-26T13:02:33.468Z,7.32
2022-09-26T13:05:37.120Z,6.88
2022-09-26T13:08:12.693Z,8.23
2022-09-26T13:10:54.713Z,10.00
2022-09-26T13:13:49.558Z,8.05
2022-09-26T13:16:27.541Z,10.60
2022-09-26T13:18:59.940Z,5.72
2022-09-26T13:21:40.484Z,8.10
2022-09-26T13:24:14.237Z,8.93
2022-09-26T13:26:46.801Z,10.68
2022-09-26T13:29:21.828Z,9.02
2022-09-26T13:31:55.877Z,9.35
2022-09-26T13:34:29.063Z,7.07
2022-09-26T13:36:58.974Z,6.97
2022-09-26T13:39:34.613Z,8.02
2022-09-26T13:42:08.466Z,8.07
2022-09-26T13:44:52.139Z,7.00
2022-09-26T13:47:27.276Z,9.50
2022-09-26T13:50:04.895Z,6.65
2022-09-26T13:52:52.812Z,10.07
2022-09-26T13:55:22.440Z,10.55
2022-09-26T13:58:04.077Z,6.85
2022-09-26T14:00:53.128Z,8.25
2022-09-26T14:04:11.419Z,7.20
2022-09-26T14:07:24.218Z,7.82
2022-09-26T14:09:56.161Z,8.20
2022-09-26T14:12:50.763Z,7.55
2022-09-26T14:15:24.076Z,5.82
2022-09-26T14:18:08.365Z,6.75
2022-09-26T14:20:50.971Z,9.05
2022-09-26T14:23:36.775Z,8.65
2022-09-26T14:26:10.391Z,8.07
2022-09-26T14:28:39.595Z,9.43
2022-09-26T14:31:33.396Z,8.23
2022-09-26T14:34:27.364Z,8.23
2022-09-26T14:36:59.570Z,12.95
2022-09-26T14:39:35.406Z,9.30
2022-09-26T14:42:15.808Z,5.20
2022-09-26T14:44:52.218Z,8.38
2022-09-26T14:47:22.544Z,7.65
2022-09-26T14:49:59.078Z,7.53
2022-09-26T14:52:27.576Z,7.60
2022-09-26T14:55:01.069Z,8.88
2022-09-26T14:57:32.792Z,8.55
2022-09-26T15:00:03.695Z,7.97
2022-09-26T15:02:40.189Z,8.52
2022-09-26T15:05:23.287Z,6.15
2022-09-26T15:07:52.823Z,6.47
2022-09-26T15:10:40.618Z,7.38
2022-09-26T15:13:40.905Z,7.10
2022-09-26T15:16:23.792Z,8.00
2022-09-26T15:18:54.169Z,7.28
2022-09-26T15:21:32.784Z,10.13
2022-09-26T15:24:03.767Z,7.85
2022-09-26T15:26:36.601Z,5.47
2022-09-26T15:29:07.666Z,7.63
2022-09-26T15:31:40.451Z,12.38
2022-09-26T15:34:17.303Z,17.23
2022-09-26T15:36:48.507Z,21.35
2022-09-26T15:39:36.836Z,19.00
2022-09-26T15:42:45.065Z,11.50
2022-09-26T15:45:29.908Z,9.75
2022-09-26T15:47:59.789Z,9.15
2022-09-26T15:50:36.866Z,10.40
2022-09-26T15:53:12.076Z,9.98
2022-09-26T15:55:46.524Z,14.23
2022-09-26T15:58:23.388Z,18.73
2022-09-26T16:00:52.892Z,14.45
2022-09-26T16:03:37.916Z,11.88
2022-09-26T16:06:17.868Z,17.10
2022-09-26T16:08:53.090Z,9.43
2022-09-26T16:11:22.547Z,10.07
2022-09-26T16:13:53.615Z,10.82
2022-09-26T16:16:29.697Z,8.48
2022-09-26T16:19:01.619Z,6.57
2022-09-26T16:21:34.152Z,7.25
2022-09-26T16:24:27.069Z,7.70
2022-09-26T16:26:56.009Z,8.70
2022-09-26T16:29:34.594Z,6.88
2022-09-26T16:32:04.667Z,6.10
2022-09-26T16:34:33.167Z,6.97
2022-09-26T16:37:01.253Z,8.30
2022-09-26T16:39:32.345Z,8.80
2022-09-26T16:42:05.593Z,7.15
2022-09-26T16:44:38.289Z,7.60
2022-09-26T16:47:09.009Z,7.10
2022-09-26T16:49:45.619Z,6.78
2022-09-26T16:52:28.111Z,5.82
2022-09-26T16:54:57.690Z,6.68
2022-09-26T16:57:28.892Z,8.23
2022-09-26T17:00:15.765Z,8.95
2022-09-26T17:02:44.255Z,15.73
2022-09-26T17:05:18.387Z,59.38
2022-09-26T17:07:47.145Z,101.97
2022-09-26T17:10:19.331Z,47.75
2022-09-26T17:12:50.823Z,48.08
2022-09-26T17:15:27.420Z,29.08
2022-09-26T17:17:56.880Z,32.20
2022-09-26T17:20:25.779Z,38.63
2022-09-26T17:22:54.650Z,26.33
2022-09-26T17:25:24.870Z,19.30
2022-09-26T17:27:59.825Z,12.18
2022-09-26T17:30:32.845Z,7.20
2022-09-26T17:33:04.358Z,8.60
2022-09-26T17:35:35.216Z,9.65
2022-09-26T17:38:07.588Z,11.30
2022-09-26T17:40:35.832Z,8.38
2022-09-26T17:43:06.453Z,6.28
2022-09-26T17:45:40.111Z,10.40
2022-09-26T17:48:13.621Z,5.35
2022-09-26T17:50:41.966Z,6.75
2022-09-26T17:53:20.473Z,7.82
2022-09-26T17:55:48.588Z,5.63
2022-09-26T17:58:20.428Z,7.18
2022-09-26T18:00:53.163Z,6.53
2022-09-26T18:03:25.075Z,7.93
2022-09-26T18:05:54.290Z,8.93
2022-09-26T18:08:29.613Z,7.72
2022-09-26T18:11:01.676Z,10.05
2022-09-26T18:13:36.470Z,9.20
2022-09-26T18:16:10.473Z,8.63
2022-09-26T18:18:38.872Z,9.35
2022-09-26T18:21:10.927Z,10.73
2022-09-26T18:23:44.317Z,11.52
2022-09-26T18:26:24.659Z,6.88
2022-09-26T18:28:52.764Z,9.43
2022-09-26T18:31:28.241Z,12.73
2022-09-26T18:33:59.851Z,8.50
2022-09-26T18:36:31.010Z,7.97
2022-09-26T18:38:59.254Z,7.93
2022-09-26T18:41:28.815Z,8.48
2022-09-26T18:44:02.921Z,10.48
2022-09-26T18:46:34.626Z,9.77
2022-09-26T18:49:06.193Z,6.95
2022-09-26T18:51:34.941Z,7.75
2022-09-26T18:54:07.145Z,7.88
2022-09-26T18:56:54.879Z,12.05
2022-09-26T18:59:25.661Z,8.82
2022-09-26T19:02:00.389Z,8.93
2022-09-26T19:04:30.462Z,9.07
2022-09-26T19:07:01.891Z,7.13
2022-09-26T19:09:33.586Z,8.98
2022-09-26T19:12:01.951Z,6.90
2022-09-26T19:14:31.515Z,9.65
2022-09-26T19:17:02.296Z,7.15
2022-09-26T19:19:32.482Z,7.82
2022-09-26T19:22:02.391Z,8.02
2022-09-26T19:24:35.015Z,10.50
2022-09-26T19:27:08.275Z,11.25
2022-09-26T19:29:45.020Z,7.78
2022-09-26T19:32:21.502Z,8.75
2022-09-26T19:34:53.430Z,9.68
2022-09-26T19:37:22.857Z,7.55
2022-09-26T19:39:51.988Z,9.73
2022-09-26T19:42:19.984Z,12.05
2022-09-26T19:44:50.188Z,7.43
2022-09-26T19:47:24.660Z,9.23
2022-09-26T19:49:55.456Z,9.68
2022-09-26T19:52:23.794Z,8.32
2022-09-26T19:54:51.961Z,7.65
2022-09-26T19:57:21.872Z,9.15
2022-09-26T19:59:50.599Z,10.35
2022-09-26T20:02:22.577Z,11.60
2022-09-26T20:04:52.580Z,13.32
2022-09-26T20:07:21.184Z,15.25
2022-09-26T20:09:50.819Z,12.82
2022-09-26T20:12:20.699Z,23.50
2022-09-26T20:14:48.630Z,25.63
2022-09-26T20:17:24.476Z,13.00
2022-09-26T20:19:58.364Z,17.55
2022-09-26T20:22:27.219Z,16.00
2022-09-26T20:24:56.013Z,15.15
2022-09-26T20:27:26.479Z,19.38
2022-09-26T20:30:12.146Z,17.35
2022-09-26T20:32:41.549Z,17.85
2022-09-26T20:35:12.620Z,21.75
2022-09-26T20:37:44.544Z,22.50
2022-09-26T20:40:19.839Z,19.30
2022-09-26T20:42:55.199Z,17.45
2022-09-26T20:45:29.622Z,16.70
2022-09-26T20:47:59.241Z,15.57
2022-09-26T20:50:34.021Z,20.52
2022-09-26T20:53:10.512Z,28.10
2022-09-26T20:55:43.236Z,29.42
2022-09-26T20:58:11.990Z,26.38
2022-09-26T21:00:40.125Z,24.10
2022-09-26T21:03:11.888Z,20.67
2022-09-26T21:05:40.163Z,17.60
2022-09-26T21:08:11.172Z,16.13
2022-09-26T21:10:39.462Z,14.50
2022-09-26T21:13:07.444Z,14.18
2022-09-26T21:15:41.375Z,12.40
2022-09-26T21:18:24.210Z,13.75
2022-09-26T21:20:53.439Z,14.10
2022-09-26T21:23:22.425Z,13.02
2022-09-26T21:25:50.391Z,13.35
2022-09-26T21:28:28.355Z,13.32
2022-09-26T21:30:59.891Z,18.20
2022-09-26T21:33:30.549Z,12.70
2022-09-26T21:35:59.130Z,14.23
2022-09-26T21:38:27.278Z,14.25
2022-09-26T21:40:58.960Z,11.50
2022-09-26T21:43:30.431Z,11.70
2022-09-26T21:46:00.567Z,13.18
2022-09-26T21:48:29.856Z,12.15
2022-09-26T21:51:00.142Z,9.15
2022-09-26T21:53:32.550Z,17.73
2022-09-26T21:56:07.777Z,10.77
2022-09-26T21:58:39.199Z,8.32
2022-09-26T22:01:07.575Z,31.30
2022-09-26T22:03:37.218Z,10.48
2022-09-26T22:06:10.154Z,10.25
2022-09-26T22:08:38.560Z,14.30
2022-09-26T22:11:08.095Z,10.48
2022-09-26T22:13:37.090Z,9.30
2022-09-26T22:16:06.446Z,12.68
2022-09-26T22:18:36.666Z,9.80
2022-09-26T22:21:04.795Z,10.82
2022-09-26T22:23:34.605Z,9.43
2022-09-26T22:26:03.061Z,10.95
2022-09-26T22:28:31.395Z,11.10
2022-09-26T22:31:01.654Z,8.30
2022-09-26T22:33:29.992Z,11.93
2022-09-26T22:35:59.229Z,10.65
2022-09-26T22:38:27.651Z,11.05
2022-09-26T22:41:00.128Z,16.33
2022-09-26T22:43:28.865Z,23.40
2022-09-26T22:46:01.786Z,19.67
2022-09-26T22:48:31.797Z,18.05
2022-09-26T22:51:01.525Z,16.25
2022-09-26T22:53:31.700Z,11.85
2022-09-26T22:56:05.100Z,12.50
2022-09-26T22:58:36.501Z,11.10
2022-09-26T23:01:05.808Z,15.32
2022-09-26T23:03:34.137Z,12.57
2022-09-26T23:06:03.766Z,9.00
2022-09-26T23:08:33.129Z,8.32
2022-09-26T23:11:02.078Z,11.18
2022-09-26T23:13:31.410Z,9.40
2022-09-26T23:16:05.075Z,9.95
2022-09-26T23:18:34.626Z,11.73
2022-09-26T23:21:08.023Z,13.23
2022-09-26T23:23:36.552Z,11.73
2022-09-26T23:26:05.826Z,10.30
2022-09-26T23:28:34.759Z,18.42
2022-09-26T23:31:07.641Z,9.02
2022-09-26T23:33:35.880Z,12.68
2022-09-26T23:36:04.544Z,11.55
2022-09-26T23:38:36.297Z,13.10
2022-09-26T23:41:05.030Z,13.98
2022-09-26T23:43:33.065Z,10.73
2022-09-26T23:46:01.690Z,11.65
2022-09-26T23:48:29.984Z,10.45
2022-09-26T23:50:58.121Z,9.60
2022-09-26T23:53:26.190Z,10.73
2022-09-26T23:56:03.380Z,10.38
2022-09-26T23:58:31.498Z,9.02
